createdAt,value
2019-04-22T00:01:18.678Z,45.90
2019-04-22T00:01:57.502Z,45.93
2019-04-22T00:02:57.521Z,46.67
2019-04-22T00:04:00.718Z,46.19
2019-04-22T00:05:06.109Z,46.67
2019-04-22T00:06:12.930Z,46.48
2019-04-22T00:07:35.870Z,46.19
2019-04-22T00:08:18.366Z,46.39
2019-04-22T00:09:19.206Z,46.39
2019-04-22T00:10:19.502Z,45.52
2019-04-22T00:11:16.106Z,45.52
2019-04-22T00:12:19.553Z,45.23
2019-04-22T00:13:42.265Z,46.19
2019-04-22T00:14:11.870Z,46.48
2019-04-22T00:15:12.714Z,46.67
2019-04-22T00:16:22.592Z,46.10
2019-04-22T00:17:21.981Z,46.58
2019-04-22T00:18:19.917Z,46.58
2019-04-22T00:19:45.595Z,46.58
2019-04-22T00:20:20.366Z,46.58
2019-04-22T00:21:19.501Z,46.58
2019-04-22T00:23:18.399Z,46.19
2019-04-22T00:24:22.116Z,46.39
2019-04-22T00:25:42.058Z,46.17
2019-04-22T00:27:26.144Z,46.67
2019-04-22T00:28:24.524Z,46.75
2019-04-22T00:29:39.198Z,46.29
2019-04-22T00:30:28.454Z,46.84
2019-04-22T00:31:40.512Z,46.75
2019-04-22T00:32:20.322Z,46.94
2019-04-22T00:33:18.670Z,46.94
2019-04-22T00:34:21.277Z,46.46
2019-04-22T00:35:16.628Z,46.58
2019-04-22T00:36:16.609Z,47.25
2019-04-22T00:37:58.385Z,47.22
2019-04-22T00:39:22.105Z,46.36
2019-04-22T00:40:21.273Z,46.65
2019-04-22T00:41:20.362Z,46.55
2019-04-22T00:42:14.742Z,47.51
2019-04-22T00:43:42.427Z,47.71
2019-04-22T00:44:21.890Z,47.22
2019-04-22T00:45:21.851Z,47.03
2019-04-22T00:46:22.643Z,47.61
2019-04-22T00:47:21.498Z,47.42
2019-04-22T00:48:21.071Z,47.32
2019-04-22T00:50:08.707Z,47.13
2019-04-22T00:50:22.428Z,47.03
2019-04-22T00:51:22.669Z,47.32
2019-04-22T00:52:18.654Z,47.42
2019-04-22T00:54:17.052Z,47.42
2019-04-22T00:55:38.072Z,47.61
2019-04-22T00:56:17.209Z,47.61
2019-04-22T00:57:15.787Z,47.80
2019-04-22T00:58:16.713Z,47.32
2019-04-22T00:59:17.322Z,47.71
2019-04-22T01:00:17.633Z,48.09
2019-04-22T01:01:36.978Z,47.89
2019-04-22T01:02:20.197Z,47.99
2019-04-22T01:03:21.578Z,47.51
2019-04-22T01:04:25.554Z,47.80
2019-04-22T01:05:22.022Z,47.71
2019-04-22T01:06:21.465Z,47.71
2019-04-22T01:07:38.896Z,47.51
2019-04-22T01:08:26.702Z,47.80
2019-04-22T01:09:18.986Z,47.42
2019-04-22T01:10:18.838Z,47.99
2019-04-22T01:11:23.810Z,48.57
2019-04-22T01:12:19.677Z,48.85
2019-04-22T01:13:38.643Z,48.83
2019-04-22T01:14:14.110Z,49.31
2019-04-22T01:15:26.122Z,49.40
2019-04-22T01:16:17.737Z,49.40
2019-04-22T01:17:19.056Z,49.98
2019-04-22T01:18:21.001Z,49.98
2019-04-22T01:19:47.163Z,50.07
2019-04-22T01:20:38.501Z,50.26
2019-04-22T01:21:27.514Z,50.36
2019-04-22T01:22:16.293Z,50.26
2019-04-22T01:23:19.146Z,50.36
2019-04-22T01:24:17.540Z,50.26
2019-04-22T01:25:29.427Z,50.36
2019-04-22T01:26:12.505Z,50.46
2019-04-22T01:27:09.119Z,51.22
2019-04-22T01:28:08.559Z,50.84
2019-04-22T01:29:05.374Z,50.93
2019-04-22T01:30:07.241Z,50.36
2019-04-22T01:31:19.615Z,49.98
2019-04-22T01:31:54.488Z,51.22
2019-04-22T01:33:03.590Z,50.84
2019-04-22T01:34:07.907Z,51.03
2019-04-22T01:35:08.395Z,51.22
2019-04-22T01:36:13.919Z,51.32
2019-04-22T01:37:34.347Z,51.13
2019-04-22T01:38:07.891Z,50.84
2019-04-22T01:39:18.085Z,51.13
2019-04-22T01:40:24.063Z,50.93
2019-04-22T01:41:26.622Z,50.84
2019-04-22T01:42:18.671Z,51.22
2019-04-22T01:43:54.369Z,51.48
2019-04-22T01:44:29.065Z,51.20
2019-04-22T01:45:22.716Z,51.20
2019-04-22T01:46:25.771Z,51.29
2019-04-22T01:47:19.645Z,51.29
2019-04-22T01:48:22.817Z,51.77
2019-04-22T01:49:40.166Z,51.29
2019-04-22T01:50:23.913Z,51.29
2019-04-22T01:51:22.353Z,51.58
2019-04-22T01:52:16.972Z,51.29
2019-04-22T01:53:24.097Z,52.06
2019-04-22T01:56:19.494Z,52.06
2019-04-22T01:57:20.759Z,51.39
2019-04-22T01:58:20.418Z,51.29
2019-04-22T01:59:14.011Z,51.39
2019-04-22T02:00:11.335Z,52.06
2019-04-22T02:01:43.696Z,52.44
2019-04-22T02:02:28.845Z,52.63
2019-04-22T02:03:19.054Z,51.87
2019-04-22T02:04:26.928Z,51.48
2019-04-22T02:05:17.731Z,51.87
2019-04-22T02:06:28.801Z,51.77
2019-04-22T02:07:41.907Z,52.54
2019-04-22T02:08:25.487Z,51.87
2019-04-22T02:09:22.472Z,52.63
2019-04-22T02:10:30.152Z,51.77
2019-04-22T02:11:26.651Z,51.87
2019-04-22T02:12:19.957Z,52.25
2019-04-22T02:13:43.086Z,52.63
2019-04-22T02:14:24.686Z,52.25
2019-04-22T02:15:17.022Z,52.25
2019-04-22T02:16:23.152Z,52.06
2019-04-22T02:17:26.701Z,52.06
2019-04-22T02:18:23.394Z,52.54
2019-04-22T02:19:46.772Z,52.54
2019-04-22T02:20:17.546Z,51.87
2019-04-22T02:21:24.890Z,52.44
2019-04-22T02:22:29.039Z,52.92
2019-04-22T02:24:26.438Z,52.99
2019-04-22T02:25:41.000Z,53.18
2019-04-22T02:26:26.020Z,52.22
2019-04-22T02:27:29.359Z,53.08
2019-04-22T02:28:32.560Z,53.75
2019-04-22T02:29:22.137Z,53.85
2019-04-22T02:30:30.071Z,53.08
2019-04-22T02:31:46.351Z,52.70
2019-04-22T02:34:35.081Z,53.37
2019-04-22T02:35:34.644Z,53.37
2019-04-22T02:38:09.309Z,53.66
2019-04-22T02:38:44.634Z,53.37
2019-04-22T02:39:41.073Z,53.85
2019-04-22T02:40:40.556Z,52.80
2019-04-22T02:42:21.455Z,53.75
2019-04-22T02:45:26.602Z,53.37
2019-04-22T02:49:47.025Z,53.47
2019-04-22T02:50:16.116Z,52.80
2019-04-22T02:51:23.011Z,53.75
2019-04-22T02:52:37.959Z,53.18
2019-04-22T02:53:59.273Z,53.56
2019-04-22T02:54:44.236Z,53.66
2019-04-22T02:55:48.922Z,53.66
2019-04-22T02:57:32.010Z,54.43
2019-04-22T02:58:41.512Z,54.43
2019-04-22T02:59:25.895Z,54.68
2019-04-22T03:00:34.601Z,54.78
2019-04-22T03:01:53.189Z,55.16
2019-04-22T03:02:35.666Z,54.97
2019-04-22T03:03:54.504Z,54.88
2019-04-22T03:04:22.785Z,55.45
2019-04-22T03:05:37.043Z,55.64
2019-04-22T03:06:30.449Z,55.26
2019-04-22T03:07:55.917Z,56.31
2019-04-22T03:09:23.920Z,55.93
2019-04-22T03:10:30.104Z,56.50
2019-04-22T03:11:25.308Z,56.60
2019-04-22T03:12:25.149Z,57.07
2019-04-22T03:14:26.286Z,57.07
2019-04-22T03:15:20.207Z,56.88
2019-04-22T03:17:29.208Z,56.85
2019-04-22T03:18:38.486Z,56.50
2019-04-22T03:20:41.936Z,55.93
2019-04-22T03:21:23.912Z,56.21
2019-04-22T03:22:26.347Z,56.12
2019-04-22T03:23:34.153Z,56.02
2019-04-22T03:24:27.751Z,56.02
2019-04-22T03:27:30.053Z,55.64
2019-04-22T03:28:29.189Z,55.16
2019-04-22T03:29:37.215Z,55.16
2019-04-22T03:32:12.908Z,55.54
2019-04-22T03:32:59.360Z,55.64
2019-04-22T03:35:37.091Z,55.54
2019-04-22T03:38:41.504Z,56.69
2019-04-22T03:39:40.089Z,56.40
2019-04-22T03:41:36.764Z,56.31
2019-04-22T03:42:21.547Z,56.69
2019-04-22T03:43:54.101Z,56.79
2019-04-22T03:44:31.065Z,56.88
2019-04-22T03:45:31.991Z,56.88
2019-04-22T03:46:30.481Z,56.69
2019-04-22T03:47:34.340Z,56.79
2019-04-22T03:48:26.163Z,57.07
2019-04-22T03:50:24.869Z,57.55
2019-04-22T03:51:39.945Z,57.07
2019-04-22T03:53:38.563Z,57.36
2019-04-22T03:54:45.782Z,56.88
2019-04-22T03:55:46.939Z,56.88
2019-04-22T03:56:59.120Z,57.24
2019-04-22T03:57:44.752Z,57.75
2019-04-22T03:58:21.068Z,56.50
2019-04-22T04:01:52.929Z,56.88
2019-04-22T04:02:38.836Z,56.60
2019-04-22T04:03:36.326Z,56.09
2019-04-22T04:06:29.693Z,56.60
2019-04-22T04:10:36.275Z,55.90
2019-04-22T04:11:38.990Z,56.57
2019-04-22T04:13:57.916Z,57.07
2019-04-22T04:14:47.162Z,56.67
2019-04-22T04:16:30.656Z,57.43
2019-04-22T04:17:34.157Z,57.43
2019-04-22T04:18:30.717Z,57.62
2019-04-22T04:20:05.666Z,57.55
2019-04-22T04:20:32.536Z,57.62
2019-04-22T04:22:41.464Z,57.33
2019-04-22T04:26:04.289Z,57.90
2019-04-22T04:27:43.792Z,58.00
2019-04-22T04:29:50.739Z,58.00
2019-04-22T04:31:58.642Z,57.71
2019-04-22T04:33:35.902Z,57.14
2019-04-22T04:34:51.106Z,56.79
2019-04-22T04:36:37.089Z,57.33
2019-04-22T04:37:52.265Z,57.33
2019-04-22T04:38:28.721Z,57.07
2019-04-22T04:43:52.655Z,56.76
2019-04-22T04:44:59.266Z,57.04
2019-04-22T04:45:41.143Z,56.85
2019-04-22T04:46:37.745Z,56.67
2019-04-22T04:47:43.549Z,57.04
2019-04-22T04:48:36.975Z,56.38
2019-04-22T04:49:52.488Z,56.76
2019-04-22T04:50:35.247Z,56.85
2019-04-22T04:52:39.689Z,56.76
2019-04-22T04:54:31.825Z,55.54
2019-04-22T04:55:47.055Z,55.45
2019-04-22T04:56:39.951Z,55.42
2019-04-22T04:57:33.557Z,55.42
2019-04-22T04:58:47.399Z,56.18
2019-04-22T04:59:39.398Z,56.57
2019-04-22T05:02:10.085Z,55.90
2019-04-22T05:02:39.982Z,56.12
2019-04-22T05:03:39.910Z,55.99
2019-04-22T05:04:41.239Z,56.09
2019-04-22T05:05:26.814Z,55.90
2019-04-22T05:06:39.670Z,56.38
2019-04-22T05:07:50.146Z,56.09
2019-04-22T05:08:40.635Z,55.99
2019-04-22T05:09:41.132Z,56.21
2019-04-22T05:10:43.739Z,56.18
2019-04-22T05:11:43.032Z,55.99
2019-04-22T05:14:05.481Z,56.21
2019-04-22T05:14:24.044Z,55.64
2019-04-22T05:15:29.781Z,55.64
2019-04-22T05:16:36.463Z,55.64
2019-04-22T05:17:37.476Z,55.64
2019-04-22T05:18:29.066Z,55.54
2019-04-22T05:19:50.279Z,55.45
2019-04-22T05:20:34.166Z,55.45
2019-04-22T05:21:24.391Z,55.64
2019-04-22T05:22:28.302Z,56.02
2019-04-22T05:23:32.432Z,55.45
2019-04-22T05:25:41.354Z,55.74
2019-04-22T05:26:30.898Z,55.64
2019-04-22T05:27:27.955Z,55.54
2019-04-22T05:28:23.987Z,55.54
2019-04-22T05:29:27.807Z,55.45
2019-04-22T05:31:49.941Z,55.35
2019-04-22T05:32:27.065Z,54.97
2019-04-22T05:33:22.413Z,54.78
2019-04-22T05:34:26.481Z,55.07
2019-04-22T05:35:26.572Z,54.97
2019-04-22T05:36:34.415Z,55.26
2019-04-22T05:37:49.943Z,54.97
2019-04-22T05:38:30.226Z,54.78
2019-04-22T05:39:21.324Z,54.88
2019-04-22T05:40:24.477Z,55.26
2019-04-22T05:41:23.321Z,55.16
2019-04-22T05:42:18.086Z,55.45
2019-04-22T05:43:42.123Z,55.45
2019-04-22T05:44:30.906Z,54.68
2019-04-22T05:45:31.419Z,55.26
2019-04-22T05:46:22.402Z,54.78
2019-04-22T05:47:20.837Z,54.30
2019-04-22T05:48:27.371Z,54.11
2019-04-22T05:49:41.562Z,53.85
2019-04-22T05:50:37.328Z,53.82
2019-04-22T05:51:29.347Z,53.28
2019-04-22T05:52:21.309Z,53.75
2019-04-22T05:53:21.245Z,53.85
2019-04-22T05:54:20.912Z,53.37
2019-04-22T05:55:52.396Z,53.94
2019-04-22T05:56:37.515Z,53.56
2019-04-22T05:58:22.596Z,52.89
2019-04-22T05:59:24.370Z,53.18
2019-04-22T06:00:36.977Z,53.37
2019-04-22T06:01:52.288Z,53.56
2019-04-22T06:02:36.054Z,53.66
2019-04-22T06:03:21.029Z,53.18
2019-04-22T06:04:23.271Z,52.89
2019-04-22T06:05:24.717Z,52.99
2019-04-22T06:07:38.723Z,53.18
2019-04-22T06:08:24.222Z,52.89
2019-04-22T06:09:24.288Z,53.47
2019-04-22T06:10:29.080Z,52.32
2019-04-22T06:11:27.070Z,52.89
2019-04-22T06:12:18.457Z,52.42
2019-04-22T06:13:38.847Z,53.47
2019-04-22T06:14:23.080Z,52.80
2019-04-22T06:15:23.476Z,52.92
2019-04-22T06:16:26.524Z,52.15
2019-04-22T06:17:24.651Z,52.34
2019-04-22T06:19:47.595Z,52.25
2019-04-22T06:20:27.121Z,52.34
2019-04-22T06:21:26.618Z,51.68
2019-04-22T06:22:34.261Z,51.68
2019-04-22T06:23:25.644Z,51.87
2019-04-22T06:24:28.974Z,51.87
2019-04-22T06:26:35.751Z,52.06
2019-04-22T06:28:36.682Z,51.29
2019-04-22T06:30:31.732Z,50.84
2019-04-22T06:32:15.276Z,50.34
2019-04-22T06:34:24.928Z,50.52
2019-04-22T06:35:30.711Z,50.84
2019-04-22T06:36:24.522Z,50.56
2019-04-22T06:37:59.829Z,50.84
2019-04-22T06:40:27.520Z,51.13
2019-04-22T06:41:31.684Z,51.61
2019-04-22T06:42:28.410Z,50.93
2019-04-22T06:43:52.943Z,51.13
2019-04-22T06:44:24.134Z,51.03
2019-04-22T06:45:23.539Z,51.13
2019-04-22T06:46:29.929Z,51.42
2019-04-22T06:47:40.181Z,51.03
2019-04-22T06:48:36.037Z,50.65
2019-04-22T06:49:46.621Z,50.07
2019-04-22T06:50:26.129Z,50.26
2019-04-22T06:51:29.209Z,49.88
2019-04-22T06:53:23.717Z,50.56
2019-04-22T06:54:32.880Z,50.17
2019-04-22T06:55:47.073Z,50.17
2019-04-22T06:56:22.152Z,50.10
2019-04-22T06:57:25.355Z,50.10
2019-04-22T06:58:21.776Z,50.58
2019-04-22T06:59:26.514Z,50.48
2019-04-22T07:00:24.508Z,50.67
2019-04-22T07:01:42.435Z,50.00
2019-04-22T07:02:25.612Z,50.29
2019-04-22T07:04:22.253Z,50.38
2019-04-22T07:05:21.810Z,50.51
2019-04-22T07:06:31.677Z,50.22
2019-04-22T07:07:44.964Z,49.93
2019-04-22T07:09:28.781Z,49.36
2019-04-22T07:11:19.075Z,49.36
2019-04-22T07:12:24.311Z,49.65
2019-04-22T07:14:01.876Z,49.93
2019-04-22T07:14:22.374Z,49.26
2019-04-22T07:15:44.125Z,49.84
2019-04-22T07:16:30.224Z,49.26
2019-04-22T07:17:39.370Z,48.78
2019-04-22T07:19:45.354Z,48.88
2019-04-22T07:20:24.198Z,48.88
2019-04-22T07:21:27.184Z,49.36
2019-04-22T07:22:22.558Z,49.93
2019-04-22T07:23:43.336Z,49.65
2019-04-22T07:25:59.624Z,48.90
2019-04-22T07:26:19.987Z,48.71
2019-04-22T07:27:21.945Z,48.90
2019-04-22T07:28:21.227Z,48.80
2019-04-22T07:29:26.635Z,48.52
2019-04-22T07:30:26.514Z,48.33
2019-04-22T07:31:49.855Z,48.83
2019-04-22T07:33:00.657Z,48.52
2019-04-22T07:33:31.275Z,48.13
2019-04-22T07:34:27.734Z,48.23
2019-04-22T07:35:32.161Z,48.13
2019-04-22T07:37:41.849Z,47.85
2019-04-22T07:38:23.844Z,48.13
2019-04-22T07:39:23.561Z,48.16
2019-04-22T07:40:26.691Z,48.25
2019-04-22T07:41:23.064Z,47.97
2019-04-22T07:42:25.935Z,47.87
2019-04-22T07:43:59.747Z,47.39
2019-04-22T07:44:26.534Z,47.68
2019-04-22T07:45:25.472Z,47.58
2019-04-22T07:46:26.598Z,47.68
2019-04-22T07:47:32.350Z,47.49
2019-04-22T07:48:33.884Z,47.49
2019-04-22T07:49:48.986Z,47.77
2019-04-22T07:50:39.749Z,47.68
2019-04-22T07:51:36.377Z,47.10
2019-04-22T07:52:22.966Z,46.74
2019-04-22T07:53:21.882Z,46.45
2019-04-22T07:54:26.513Z,46.84
2019-04-22T07:55:45.364Z,46.65
2019-04-22T07:56:27.643Z,46.94
2019-04-22T07:57:28.282Z,46.74
2019-04-22T07:58:25.777Z,46.74
2019-04-22T07:59:28.036Z,46.55
2019-04-22T08:00:23.047Z,46.77
2019-04-22T08:01:42.768Z,46.77
2019-04-22T08:02:26.634Z,46.00
2019-04-22T08:03:28.975Z,46.00
2019-04-22T08:04:44.750Z,46.86
2019-04-22T08:05:24.855Z,45.90
2019-04-22T08:06:26.775Z,45.45
2019-04-22T08:08:11.515Z,46.09
2019-04-22T08:08:26.127Z,45.81
2019-04-22T08:09:34.088Z,46.50
2019-04-22T08:10:34.828Z,45.15
2019-04-22T08:12:29.635Z,45.06
2019-04-22T08:14:03.558Z,45.64
2019-04-22T08:14:28.304Z,45.15
2019-04-22T08:15:28.007Z,44.48
2019-04-22T08:16:25.100Z,44.31
2019-04-22T08:18:28.006Z,44.31
2019-04-22T08:19:48.474Z,44.12
2019-04-22T08:20:29.014Z,44.22
2019-04-22T08:21:23.722Z,43.84
2019-04-22T08:22:23.918Z,43.76
2019-04-22T08:24:28.857Z,44.05
2019-04-22T08:25:45.576Z,42.70
2019-04-22T08:26:27.318Z,42.22
2019-04-22T08:27:26.893Z,41.16
2019-04-22T08:29:43.400Z,41.74
2019-04-22T08:30:28.608Z,41.83
2019-04-22T08:31:49.177Z,42.12
2019-04-22T08:32:29.904Z,41.35
2019-04-22T08:33:29.026Z,41.64
2019-04-22T08:34:24.577Z,42.03
2019-04-22T08:35:20.001Z,41.47
2019-04-22T08:36:26.281Z,40.70
2019-04-22T08:37:51.218Z,40.05
2019-04-22T08:38:37.658Z,37.83
2019-04-22T08:39:26.779Z,36.77
2019-04-22T08:40:28.800Z,36.10
2019-04-22T08:41:31.898Z,36.68
2019-04-22T08:42:35.428Z,37.26
2019-04-22T08:43:56.611Z,36.77
2019-04-22T08:44:40.230Z,36.31
2019-04-22T08:45:32.723Z,34.77
2019-04-22T08:48:24.621Z,33.91
2019-04-22T08:49:57.129Z,34.11
2019-04-22T08:50:26.680Z,33.44
2019-04-22T08:51:25.302Z,33.92
2019-04-22T08:52:30.262Z,33.63
2019-04-22T08:53:23.449Z,33.45
2019-04-22T08:54:28.341Z,33.74
2019-04-22T08:56:37.645Z,32.78
2019-04-22T08:57:40.891Z,33.55
2019-04-22T08:58:27.360Z,33.26
2019-04-22T08:59:46.579Z,33.17
2019-04-22T09:00:33.872Z,33.26
2019-04-22T09:01:45.286Z,33.76
2019-04-22T09:02:34.574Z,33.55
2019-04-22T09:03:23.958Z,33.37
2019-04-22T09:04:16.345Z,33.57
2019-04-22T09:05:42.477Z,33.66
2019-04-22T09:06:49.411Z,32.79
2019-04-22T09:07:48.873Z,32.41
2019-04-22T09:08:27.877Z,31.93
2019-04-22T09:09:27.079Z,33.28
2019-04-22T09:10:33.512Z,33.10
2019-04-22T09:11:33.827Z,31.37
2019-04-22T09:12:37.046Z,31.93
2019-04-22T09:13:53.196Z,31.83
2019-04-22T09:14:34.230Z,31.83
2019-04-22T09:15:30.877Z,31.54
2019-04-22T09:16:32.085Z,31.63
2019-04-22T09:17:39.881Z,31.93
2019-04-22T09:18:32.941Z,32.62
2019-04-22T09:19:47.717Z,31.85
2019-04-22T09:20:28.418Z,32.04
2019-04-22T09:21:34.415Z,31.56
2019-04-22T09:22:21.748Z,30.79
2019-04-22T09:23:30.329Z,32.04
2019-04-22T09:24:23.372Z,31.67
2019-04-22T09:25:51.095Z,31.96
2019-04-22T09:26:30.271Z,30.51
2019-04-22T09:27:37.017Z,31.09
2019-04-22T09:28:34.667Z,30.90
2019-04-22T09:29:32.575Z,30.99
2019-04-22T09:30:30.680Z,30.22
2019-04-22T09:31:57.011Z,31.18
2019-04-22T09:32:26.407Z,32.06
2019-04-22T09:33:27.166Z,31.76
2019-04-22T09:34:27.803Z,32.07
2019-04-22T09:35:31.885Z,30.52
2019-04-22T09:36:29.687Z,31.20
2019-04-22T09:38:08.938Z,30.52
2019-04-22T09:39:30.226Z,29.36
2019-04-22T09:40:43.032Z,30.14
2019-04-22T09:41:27.160Z,30.82
2019-04-22T09:42:24.147Z,30.35
2019-04-22T09:43:52.341Z,31.02
2019-04-22T09:44:31.087Z,30.63
2019-04-22T09:45:21.393Z,29.09
2019-04-22T09:46:28.429Z,28.80
2019-04-22T09:47:30.713Z,29.28
2019-04-22T09:48:33.554Z,29.38
2019-04-22T09:50:03.830Z,28.22
2019-04-22T09:50:30.538Z,27.06
2019-04-22T09:51:25.727Z,26.57
2019-04-22T09:52:28.142Z,26.50
2019-04-22T09:53:31.927Z,26.68
2019-04-22T09:54:29.686Z,26.29
2019-04-22T09:55:55.219Z,26.09
2019-04-22T09:56:33.568Z,26.77
2019-04-22T09:57:24.469Z,26.48
2019-04-22T09:58:31.674Z,25.99
2019-04-22T09:59:32.659Z,26.09
2019-04-22T10:00:32.721Z,26.19
2019-04-22T10:02:03.402Z,26.20
2019-04-22T10:03:25.942Z,26.59
2019-04-22T10:04:30.228Z,26.50
2019-04-22T10:05:29.319Z,26.70
2019-04-22T10:06:39.597Z,25.63
2019-04-22T10:07:44.905Z,25.73
2019-04-22T10:08:33.877Z,25.35
2019-04-22T10:09:40.629Z,25.35
2019-04-22T10:10:28.123Z,26.31
2019-04-22T10:11:32.618Z,24.77
2019-04-22T10:12:31.573Z,24.68
2019-04-22T10:13:53.744Z,23.81
2019-04-22T10:14:32.407Z,23.71
2019-04-22T10:15:30.718Z,23.81
2019-04-22T10:16:31.377Z,24.79
2019-04-22T10:17:25.154Z,24.21
2019-04-22T10:18:26.232Z,23.93
2019-04-22T10:19:49.346Z,23.64
2019-04-22T10:20:28.187Z,22.49
2019-04-22T10:21:35.608Z,22.10
2019-04-22T10:22:32.119Z,22.02
2019-04-22T10:24:30.120Z,20.74
2019-04-22T10:25:52.281Z,21.13
2019-04-22T10:26:24.479Z,21.51
2019-04-22T10:27:26.873Z,21.51
2019-04-22T10:28:32.762Z,21.33
2019-04-22T10:29:24.854Z,21.33
2019-04-22T10:30:33.954Z,21.53
2019-04-22T10:31:49.842Z,22.49
2019-04-22T10:32:27.064Z,22.30
2019-04-22T10:33:22.042Z,22.30
2019-04-22T10:34:15.459Z,22.89
2019-04-22T10:35:06.829Z,22.00
2019-04-22T10:36:03.628Z,21.43
2019-04-22T10:37:24.263Z,20.57
2019-04-22T10:38:02.355Z,20.95
2019-04-22T10:39:02.410Z,21.33
2019-04-22T10:40:05.745Z,20.95
2019-04-22T10:41:02.728Z,22.41
2019-04-22T10:42:02.885Z,22.99
2019-04-22T10:43:23.517Z,20.75
2019-04-22T10:44:03.501Z,20.07
2019-04-22T10:45:03.803Z,19.68
2019-04-22T10:46:03.969Z,20.37
2019-04-22T10:47:02.582Z,20.65
2019-04-22T10:48:03.897Z,20.56
2019-04-22T10:49:24.487Z,21.33
2019-04-22T10:50:02.806Z,21.33
2019-04-22T10:51:02.686Z,21.92
2019-04-22T10:52:02.748Z,21.92
2019-04-22T10:53:03.541Z,21.92
2019-04-22T10:54:02.731Z,22.41
2019-04-22T10:55:23.781Z,22.51
2019-04-22T10:56:03.244Z,21.25
2019-04-22T10:57:03.241Z,20.18
2019-04-22T10:58:02.835Z,20.37
2019-04-22T10:59:03.035Z,19.40
2019-04-22T11:00:02.964Z,18.63
2019-04-22T11:01:25.531Z,18.53
2019-04-22T11:02:03.402Z,17.46
2019-04-22T11:03:03.986Z,18.82
2019-04-22T11:04:03.496Z,19.30
2019-04-22T11:05:04.055Z,18.33
2019-04-22T11:06:03.290Z,18.33
2019-04-22T11:07:30.805Z,18.82
2019-04-22T11:08:06.719Z,19.21
2019-04-22T11:09:04.937Z,19.11
2019-04-22T11:10:20.475Z,19.79
2019-04-22T11:11:15.113Z,18.73
2019-04-22T11:12:09.941Z,18.63
2019-04-22T11:13:24.340Z,17.56
2019-04-22T11:14:04.186Z,18.43
2019-04-22T11:15:03.516Z,18.73
2019-04-22T11:16:03.567Z,17.66
2019-04-22T11:17:05.304Z,17.76
2019-04-22T11:18:03.322Z,18.54
2019-04-22T11:19:25.554Z,18.64
2019-04-22T11:20:03.807Z,18.64
2019-04-22T11:21:03.356Z,19.32
2019-04-22T11:22:09.771Z,17.86
2019-04-22T11:23:04.579Z,18.05
2019-04-22T11:24:04.906Z,17.47
2019-04-22T11:25:25.521Z,17.56
2019-04-22T11:26:03.870Z,17.66
2019-04-22T11:27:05.191Z,18.63
2019-04-22T11:28:03.554Z,18.35
2019-04-22T11:29:03.661Z,17.76
2019-04-22T11:30:03.895Z,17.47
2019-04-22T11:31:24.598Z,16.89
2019-04-22T11:32:04.293Z,16.90
2019-04-22T11:33:04.560Z,16.71
2019-04-22T11:34:03.681Z,16.51
2019-04-22T11:35:03.772Z,17.18
2019-04-22T11:36:03.879Z,17.28
2019-04-22T11:37:24.935Z,17.77
2019-04-22T11:38:04.586Z,18.45
2019-04-22T11:39:06.079Z,16.61
2019-04-22T11:40:14.823Z,16.41
2019-04-22T11:41:05.305Z,16.41
2019-04-22T11:42:04.499Z,16.71
2019-04-22T11:43:26.083Z,16.71
2019-04-22T11:44:05.304Z,17.48
2019-04-22T11:45:03.912Z,16.51
2019-04-22T11:46:05.102Z,16.51
2019-04-22T11:47:05.263Z,17.48
2019-04-22T11:48:05.290Z,17.58
2019-04-22T11:49:25.858Z,17.68
2019-04-22T11:50:04.015Z,17.68
2019-04-22T11:51:04.364Z,17.97
2019-04-22T11:52:06.567Z,17.78
2019-04-22T11:53:04.793Z,17.78
2019-04-22T11:54:05.190Z,17.30
2019-04-22T11:55:26.679Z,16.91
2019-04-22T11:56:04.809Z,17.30
2019-04-22T11:57:05.469Z,16.81
2019-04-22T11:58:04.250Z,16.43
2019-04-22T11:59:04.804Z,16.53
2019-04-22T12:00:04.988Z,16.53
2019-04-22T12:01:26.533Z,16.53
2019-04-22T12:02:04.723Z,16.53
2019-04-22T12:03:05.189Z,17.30
2019-04-22T12:04:04.353Z,16.43
2019-04-22T12:05:05.969Z,17.31
2019-04-22T12:06:04.370Z,16.53
2019-04-22T12:07:26.640Z,16.54
2019-04-22T12:08:04.953Z,16.24
2019-04-22T12:09:05.643Z,15.17
2019-04-22T12:10:17.886Z,15.67
2019-04-22T12:11:06.014Z,15.95
2019-04-22T12:12:05.766Z,15.75
2019-04-22T12:13:26.205Z,16.24
2019-04-22T12:14:04.562Z,16.73
2019-04-22T12:15:04.587Z,17.12
2019-04-22T12:16:05.305Z,16.54
2019-04-22T12:17:05.736Z,15.86
2019-04-22T12:18:04.636Z,15.17
2019-04-22T12:19:27.052Z,15.66
2019-04-22T12:20:07.360Z,15.85
2019-04-22T12:21:05.426Z,16.34
2019-04-22T12:22:04.916Z,15.95
2019-04-22T12:23:05.124Z,16.05
2019-04-22T12:24:05.558Z,16.63
2019-04-22T12:25:35.098Z,16.44
2019-04-22T12:26:09.246Z,16.64
2019-04-22T12:27:06.284Z,16.16
2019-04-22T12:28:05.312Z,15.97
2019-04-22T12:29:04.923Z,15.77
2019-04-22T12:30:05.064Z,16.44
2019-04-22T12:31:27.140Z,16.64
2019-04-22T12:32:05.338Z,16.54
2019-04-22T12:33:08.803Z,16.64
2019-04-22T12:34:06.013Z,15.77
2019-04-22T12:35:05.360Z,15.58
2019-04-22T12:36:06.407Z,15.18
2019-04-22T12:37:35.629Z,15.96
2019-04-22T12:38:08.662Z,15.47
2019-04-22T12:39:05.224Z,16.15
2019-04-22T12:40:06.410Z,16.35
2019-04-22T12:41:09.610Z,17.23
2019-04-22T12:42:06.170Z,16.55
2019-04-22T12:43:27.828Z,15.58
2019-04-22T12:44:05.289Z,14.89
2019-04-22T12:45:06.348Z,14.81
2019-04-22T12:46:06.079Z,15.19
2019-04-22T12:47:06.123Z,14.70
2019-04-22T12:48:06.403Z,14.51
2019-04-22T12:49:27.937Z,14.51
2019-04-22T12:50:12.270Z,14.69
2019-04-22T12:51:06.906Z,14.69
2019-04-22T12:52:07.191Z,15.18
2019-04-22T12:53:10.641Z,14.89
2019-04-22T12:54:06.840Z,14.59
2019-04-22T12:55:27.853Z,14.60
2019-04-22T12:56:06.930Z,14.79
2019-04-22T12:57:05.877Z,14.79
2019-04-22T12:58:05.582Z,14.98
2019-04-22T12:59:05.763Z,15.37
2019-04-22T13:00:05.833Z,15.38
2019-04-22T13:01:26.880Z,14.89
2019-04-22T13:02:07.098Z,15.19
2019-04-22T13:03:05.668Z,14.89
2019-04-22T13:04:09.386Z,14.70
2019-04-22T13:05:06.002Z,14.70
2019-04-22T13:06:05.963Z,15.09
2019-04-22T13:07:26.833Z,15.19
2019-04-22T13:08:05.791Z,15.19
2019-04-22T13:09:06.212Z,15.28
2019-04-22T13:10:06.063Z,14.81
2019-04-22T13:11:11.761Z,14.81
2019-04-22T13:12:06.897Z,14.32
2019-04-22T13:13:27.203Z,14.42
2019-04-22T13:14:07.086Z,14.81
2019-04-22T13:15:06.521Z,14.03
2019-04-22T13:16:07.007Z,13.64
2019-04-22T13:17:06.249Z,14.32
2019-04-22T13:18:17.084Z,14.91
2019-04-22T13:19:28.340Z,14.72
2019-04-22T13:20:06.072Z,14.91
2019-04-22T13:21:06.546Z,14.53
2019-04-22T13:22:07.037Z,14.53
2019-04-22T13:23:07.574Z,14.72
2019-04-22T13:24:07.071Z,15.11
2019-04-22T13:25:30.049Z,15.31
2019-04-22T13:26:07.450Z,14.83
2019-04-22T13:27:06.669Z,14.64
2019-04-22T13:28:07.234Z,14.06
2019-04-22T13:29:07.327Z,13.76
2019-04-22T13:30:06.341Z,13.28
2019-04-22T13:31:28.688Z,13.17
2019-04-22T13:32:06.889Z,13.18
2019-04-22T13:33:07.067Z,12.78
2019-04-22T13:34:13.320Z,13.17
2019-04-22T13:35:07.110Z,13.57
2019-04-22T13:36:07.885Z,13.19
2019-04-22T13:37:28.582Z,12.61
2019-04-22T13:38:06.908Z,12.81
2019-04-22T13:39:06.996Z,12.71
2019-04-22T13:40:07.366Z,12.91
2019-04-22T13:41:20.428Z,12.82
2019-04-22T13:42:11.892Z,12.72
2019-04-22T13:43:29.067Z,12.62
2019-04-22T13:44:07.083Z,12.04
2019-04-22T13:45:07.630Z,11.66
2019-04-22T13:46:07.973Z,12.25
2019-04-22T13:47:26.942Z,12.25
2019-04-22T13:48:22.054Z,11.46
2019-04-22T13:50:01.298Z,11.18
2019-04-22T13:50:48.488Z,11.38
2019-04-22T13:51:36.379Z,10.49
2019-04-22T13:55:54.765Z,10.48
2019-04-22T13:56:24.888Z,10.77
2019-04-22T13:57:27.528Z,10.78
2019-04-22T13:58:18.537Z,10.19
2019-04-22T13:59:13.567Z,10.28
2019-04-22T14:00:09.552Z,10.68
2019-04-22T14:01:28.311Z,10.98
2019-04-22T14:02:08.481Z,11.57
2019-04-22T14:03:08.671Z,10.30
2019-04-22T14:04:07.204Z,10.39
2019-04-22T14:05:08.525Z,11.18
2019-04-22T14:06:07.194Z,10.38
2019-04-22T14:07:28.641Z,10.58
2019-04-22T14:08:08.700Z,10.29
2019-04-22T14:09:07.525Z,10.59
2019-04-22T14:10:08.551Z,10.88
2019-04-22T14:11:16.850Z,11.08
2019-04-22T14:12:09.734Z,10.69
2019-04-22T14:13:28.400Z,10.20
2019-04-22T14:14:07.433Z,10.30
2019-04-22T14:15:07.465Z,10.80
2019-04-22T14:16:08.861Z,10.89
2019-04-22T14:17:07.499Z,10.71
2019-04-22T14:18:07.531Z,10.31
2019-04-22T14:19:29.798Z,10.13
2019-04-22T14:20:08.854Z,10.11
2019-04-22T14:21:09.013Z,10.01